sensor_id;sensor_type;location;lat;lon;timestamp;P1;durP1;ratioP1;P2;durP2;ratioP2
2972;SDS011;1496;51.404;7.232;2022-12-16T00:01:13;42.80;;;22.23;;
2972;SDS011;1496;51.404;7.232;2022-12-16T00:03:47;39.43;;;20.60;;
2972;SDS011;1496;51.404;7.232;2022-12-16T00:06:15;40.27;;;23.50;;
2972;SDS011;1496;51.404;7.232;2022-12-16T00:08:40;39.10;;;21.20;;
2972;SDS011;1496;51.404;7.232;2022-12-16T00:11:07;47.00;;;21.67;;
2972;SDS011;1496;51.404;7.232;2022-12-16T00:13:33;46.23;;;22.27;;
2972;SDS011;1496;51.404;7.232;2022-12-16T00:16:04;43.97;;;22.80;;
2972;SDS011;1496;51.404;7.232;2022-12-16T00:18:31;40.50;;;21.00;;
2972;SDS011;1496;51.404;7.232;2022-12-16T00:20:56;41.80;;;20.87;;
2972;SDS011;1496;51.404;7.232;2022-12-16T00:23:22;41.23;;;22.70;;
2972;SDS011;1496;51.404;7.232;2022-12-16T00:25:48;43.00;;;22.13;;
2972;SDS011;1496;51.404;7.232;2022-12-16T00:28:16;38.23;;;20.73;;
2972;SDS011;1496;51.404;7.232;2022-12-16T00:30:42;33.40;;;18.97;;
2972;SDS011;1496;51.404;7.232;2022-12-16T00:33:08;44.37;;;19.90;;
2972;SDS011;1496;51.404;7.232;2022-12-16T00:35:34;32.47;;;17.97;;
2972;SDS011;1496;51.404;7.232;2022-12-16T00:38:00;39.10;;;19.27;;
2972;SDS011;1496;51.404;7.232;2022-12-16T00:40:26;38.00;;;18.40;;
2972;SDS011;1496;51.404;7.232;2022-12-16T00:42:51;38.17;;;20.57;;
2972;SDS011;1496;51.404;7.232;2022-12-16T00:45:17;37.80;;;21.10;;
2972;SDS011;1496;51.404;7.232;2022-12-16T00:47:47;45.80;;;23.13;;
2972;SDS011;1496;51.404;7.232;2022-12-16T00:50:14;37.33;;;22.20;;
2972;SDS011;1496;51.404;7.232;2022-12-16T00:52:40;55.57;;;24.37;;
2972;SDS011;1496;51.404;7.232;2022-12-16T00:55:06;46.80;;;23.43;;
2972;SDS011;1496;51.404;7.232;2022-12-16T00:57:32;45.10;;;22.53;;
2972;SDS011;1496;51.404;7.232;2022-12-16T00:59:58;45.20;;;24.40;;
2972;SDS011;1496;51.404;7.232;2022-12-16T01:02:23;45.80;;;24.27;;
2972;SDS011;1496;51.404;7.232;2022-12-16T01:04:52;44.77;;;23.97;;
2972;SDS011;1496;51.404;7.232;2022-12-16T01:07:18;43.07;;;23.47;;
2972;SDS011;1496;51.404;7.232;2022-12-16T01:09:43;43.67;;;22.67;;
2972;SDS011;1496;51.404;7.232;2022-12-16T01:12:09;39.20;;;20.03;;
2972;SDS011;1496;51.404;7.232;2022-12-16T01:14:36;41.00;;;21.63;;
2972;SDS011;1496;51.404;7.232;2022-12-16T01:17:01;42.57;;;21.03;;
2972;SDS011;1496;51.404;7.232;2022-12-16T01:19:27;39.97;;;19.43;;
2972;SDS011;1496;51.404;7.232;2022-12-16T01:21:53;38.30;;;20.50;;
2972;SDS011;1496;51.404;7.232;2022-12-16T01:24:21;38.50;;;20.00;;
2972;SDS011;1496;51.404;7.232;2022-12-16T01:26:47;44.93;;;20.73;;
2972;SDS011;1496;51.404;7.232;2022-12-16T01:29:13;43.97;;;19.57;;
2972;SDS011;1496;51.404;7.232;2022-12-16T01:31:38;47.60;;;20.23;;
2972;SDS011;1496;51.404;7.232;2022-12-16T01:34:04;32.30;;;18.93;;
2972;SDS011;1496;51.404;7.232;2022-12-16T01:36:30;31.70;;;18.20;;
2972;SDS011;1496;51.404;7.232;2022-12-16T01:38:56;30.33;;;16.83;;
2972;SDS011;1496;51.404;7.232;2022-12-16T01:41:21;31.70;;;17.07;;
2972;SDS011;1496;51.404;7.232;2022-12-16T01:43:47;31.53;;;15.20;;
2972;SDS011;1496;51.404;7.232;2022-12-16T01:48:54;29.33;;;15.60;;
2972;SDS011;1496;51.404;7.232;2022-12-16T01:51:29;29.33;;;15.37;;
2972;SDS011;1496;51.404;7.232;2022-12-16T01:54:07;30.00;;;15.07;;
2972;SDS011;1496;51.404;7.232;2022-12-16T01:56:41;28.57;;;15.57;;
2972;SDS011;1496;51.404;7.232;2022-12-16T01:59:10;24.50;;;14.83;;
2972;SDS011;1496;51.404;7.232;2022-12-16T02:01:40;21.47;;;14.80;;
2972;SDS011;1496;51.404;7.232;2022-12-16T02:04:06;32.00;;;18.10;;
2972;SDS011;1496;51.404;7.232;2022-12-16T02:06:31;27.90;;;15.67;;
2972;SDS011;1496;51.404;7.232;2022-12-16T02:08:58;32.20;;;19.00;;
2972;SDS011;1496;51.404;7.232;2022-12-16T02:11:49;33.87;;;17.43;;
2972;SDS011;1496;51.404;7.232;2022-12-16T02:17:20;47.13;;;19.63;;
2972;SDS011;1496;51.404;7.232;2022-12-16T02:22:41;39.23;;;20.00;;
2972;SDS011;1496;51.404;7.232;2022-12-16T02:27:57;43.33;;;19.97;;
2972;SDS011;1496;51.404;7.232;2022-12-16T02:36:25;40.10;;;19.43;;
2972;SDS011;1496;51.404;7.232;2022-12-16T02:44:43;35.77;;;17.93;;
2972;SDS011;1496;51.404;7.232;2022-12-16T02:47:12;30.47;;;15.63;;
2972;SDS011;1496;51.404;7.232;2022-12-16T02:49:43;25.23;;;14.10;;
2972;SDS011;1496;51.404;7.232;2022-12-16T02:52:11;22.33;;;13.17;;
2972;SDS011;1496;51.404;7.232;2022-12-16T02:54:38;29.33;;;14.13;;
2972;SDS011;1496;51.404;7.232;2022-12-16T02:59:50;29.67;;;14.33;;
2972;SDS011;1496;51.404;7.232;2022-12-16T03:02:39;36.20;;;17.97;;
2972;SDS011;1496;51.404;7.232;2022-12-16T03:05:13;27.33;;;14.27;;
2972;SDS011;1496;51.404;7.232;2022-12-16T03:07:45;26.77;;;14.07;;
2972;SDS011;1496;51.404;7.232;2022-12-16T03:10:15;32.13;;;16.23;;
2972;SDS011;1496;51.404;7.232;2022-12-16T03:12:44;33.73;;;14.90;;
2972;SDS011;1496;51.404;7.232;2022-12-16T03:15:14;23.63;;;14.90;;
2972;SDS011;1496;51.404;7.232;2022-12-16T03:17:43;21.03;;;13.27;;
2972;SDS011;1496;51.404;7.232;2022-12-16T03:20:14;18.23;;;11.77;;
2972;SDS011;1496;51.404;7.232;2022-12-16T03:22:45;26.97;;;12.67;;
2972;SDS011;1496;51.404;7.232;2022-12-16T03:25:14;23.33;;;14.43;;
2972;SDS011;1496;51.404;7.232;2022-12-16T03:27:44;31.40;;;15.10;;
2972;SDS011;1496;51.404;7.232;2022-12-16T03:30:24;27.80;;;14.47;;
2972;SDS011;1496;51.404;7.232;2022-12-16T03:35:33;23.60;;;13.47;;
2972;SDS011;1496;51.404;7.232;2022-12-16T03:38:05;31.67;;;15.60;;
2972;SDS011;1496;51.404;7.232;2022-12-16T03:40:33;32.47;;;16.93;;
2972;SDS011;1496;51.404;7.232;2022-12-16T03:43:02;32.67;;;16.00;;
2972;SDS011;1496;51.404;7.232;2022-12-16T03:45:29;34.40;;;17.13;;
2972;SDS011;1496;51.404;7.232;2022-12-16T03:48:06;30.63;;;16.47;;
2972;SDS011;1496;51.404;7.232;2022-12-16T03:50:34;27.00;;;14.23;;
2972;SDS011;1496;51.404;7.232;2022-12-16T03:53:00;30.53;;;15.33;;
2972;SDS011;1496;51.404;7.232;2022-12-16T03:55:27;35.53;;;16.43;;
2972;SDS011;1496;51.404;7.232;2022-12-16T03:57:53;35.43;;;16.30;;
2972;SDS011;1496;51.404;7.232;2022-12-16T04:00:18;30.27;;;16.37;;
2972;SDS011;1496;51.404;7.232;2022-12-16T04:02:44;27.90;;;14.53;;
2972;SDS011;1496;51.404;7.232;2022-12-16T04:05:10;35.97;;;15.13;;
2972;SDS011;1496;51.404;7.232;2022-12-16T04:07:36;24.43;;;13.63;;
2972;SDS011;1496;51.404;7.232;2022-12-16T04:10:02;30.43;;;14.00;;
2972;SDS011;1496;51.404;7.232;2022-12-16T04:12:28;28.73;;;14.10;;
2972;SDS011;1496;51.404;7.232;2022-12-16T04:15:12;27.73;;;13.70;;
2972;SDS011;1496;51.404;7.232;2022-12-16T04:17:57;28.37;;;14.27;;
2972;SDS011;1496;51.404;7.232;2022-12-16T04:20:42;22.43;;;12.87;;
2972;SDS011;1496;51.404;7.232;2022-12-16T04:23:28;27.47;;;13.93;;
2972;SDS011;1496;51.404;7.232;2022-12-16T04:26:14;27.97;;;14.70;;
2972;SDS011;1496;51.404;7.232;2022-12-16T04:28:40;23.20;;;14.50;;
2972;SDS011;1496;51.404;7.232;2022-12-16T04:31:06;23.97;;;13.40;;
2972;SDS011;1496;51.404;7.232;2022-12-16T04:33:32;33.17;;;14.57;;
2972;SDS011;1496;51.404;7.232;2022-12-16T04:36:16;29.60;;;14.47;;
2972;SDS011;1496;51.404;7.232;2022-12-16T04:39:01;27.17;;;14.50;;
2972;SDS011;1496;51.404;7.232;2022-12-16T04:41:45;32.20;;;16.00;;
2972;SDS011;1496;51.404;7.232;2022-12-16T04:44:30;27.40;;;14.13;;
2972;SDS011;1496;51.404;7.232;2022-12-16T04:47:14;29.83;;;14.47;;
2972;SDS011;1496;51.404;7.232;2022-12-16T04:49:59;29.43;;;15.73;;
2972;SDS011;1496;51.404;7.232;2022-12-16T04:52:43;23.13;;;14.03;;
2972;SDS011;1496;51.404;7.232;2022-12-16T04:55:27;26.77;;;13.80;;
2972;SDS011;1496;51.404;7.232;2022-12-16T04:58:12;25.03;;;14.80;;
2972;SDS011;1496;51.404;7.232;2022-12-16T05:00:56;22.77;;;12.73;;
2972;SDS011;1496;51.404;7.232;2022-12-16T05:03:41;22.33;;;12.63;;
2972;SDS011;1496;51.404;7.232;2022-12-16T05:06:25;19.53;;;11.70;;
2972;SDS011;1496;51.404;7.232;2022-12-16T05:09:10;22.73;;;12.90;;
2972;SDS011;1496;51.404;7.232;2022-12-16T05:11:54;28.13;;;14.07;;
2972;SDS011;1496;51.404;7.232;2022-12-16T05:14:39;31.33;;;15.50;;
2972;SDS011;1496;51.404;7.232;2022-12-16T05:17:23;35.40;;;15.17;;
2972;SDS011;1496;51.404;7.232;2022-12-16T05:20:07;24.57;;;14.07;;
2972;SDS011;1496;51.404;7.232;2022-12-16T05:22:54;21.63;;;13.20;;
2972;SDS011;1496;51.404;7.232;2022-12-16T05:25:39;32.93;;;14.70;;
2972;SDS011;1496;51.404;7.232;2022-12-16T05:28:23;23.83;;;13.90;;
2972;SDS011;1496;51.404;7.232;2022-12-16T05:31:08;23.10;;;13.07;;
2972;SDS011;1496;51.404;7.232;2022-12-16T05:33:52;31.20;;;14.90;;
2972;SDS011;1496;51.404;7.232;2022-12-16T05:36:36;22.60;;;12.97;;
2972;SDS011;1496;51.404;7.232;2022-12-16T05:39:21;21.00;;;11.63;;
2972;SDS011;1496;51.404;7.232;2022-12-16T05:42:05;24.73;;;11.77;;
2972;SDS011;1496;51.404;7.232;2022-12-16T05:44:50;23.93;;;12.00;;
2972;SDS011;1496;51.404;7.232;2022-12-16T05:47:35;27.27;;;13.40;;
2972;SDS011;1496;51.404;7.232;2022-12-16T05:50:19;24.13;;;13.97;;
2972;SDS011;1496;51.404;7.232;2022-12-16T05:53:07;28.97;;;14.00;;
2972;SDS011;1496;51.404;7.232;2022-12-16T05:55:51;23.67;;;14.20;;
2972;SDS011;1496;51.404;7.232;2022-12-16T05:58:36;25.77;;;13.60;;
2972;SDS011;1496;51.404;7.232;2022-12-16T06:01:21;22.27;;;11.53;;
2972;SDS011;1496;51.404;7.232;2022-12-16T06:04:05;21.40;;;12.73;;
2972;SDS011;1496;51.404;7.232;2022-12-16T06:06:49;23.07;;;13.33;;
2972;SDS011;1496;51.404;7.232;2022-12-16T06:09:34;23.70;;;13.37;;
2972;SDS011;1496;51.404;7.232;2022-12-16T06:12:18;27.23;;;13.93;;
2972;SDS011;1496;51.404;7.232;2022-12-16T06:15:03;26.20;;;13.40;;
2972;SDS011;1496;51.404;7.232;2022-12-16T06:17:48;22.97;;;13.23;;
2972;SDS011;1496;51.404;7.232;2022-12-16T06:20:34;22.13;;;12.63;;
2972;SDS011;1496;51.404;7.232;2022-12-16T06:23:18;28.23;;;14.30;;
2972;SDS011;1496;51.404;7.232;2022-12-16T06:26:03;24.50;;;11.73;;
2972;SDS011;1496;51.404;7.232;2022-12-16T06:28:48;24.53;;;12.83;;
2972;SDS011;1496;51.404;7.232;2022-12-16T06:31:32;23.60;;;13.63;;
2972;SDS011;1496;51.404;7.232;2022-12-16T06:34:17;29.73;;;13.77;;
2972;SDS011;1496;51.404;7.232;2022-12-16T06:37:01;24.93;;;13.37;;
2972;SDS011;1496;51.404;7.232;2022-12-16T06:39:45;27.60;;;12.53;;
2972;SDS011;1496;51.404;7.232;2022-12-16T06:42:30;24.50;;;12.60;;
2972;SDS011;1496;51.404;7.232;2022-12-16T06:45:14;22.07;;;11.73;;
2972;SDS011;1496;51.404;7.232;2022-12-16T06:47:59;24.97;;;13.70;;
2972;SDS011;1496;51.404;7.232;2022-12-16T06:50:43;25.97;;;12.10;;
2972;SDS011;1496;51.404;7.232;2022-12-16T06:53:28;20.07;;;11.10;;
2972;SDS011;1496;51.404;7.232;2022-12-16T06:56:12;22.60;;;12.17;;
2972;SDS011;1496;51.404;7.232;2022-12-16T06:58:57;19.30;;;11.63;;
2972;SDS011;1496;51.404;7.232;2022-12-16T07:01:41;22.23;;;11.47;;
2972;SDS011;1496;51.404;7.232;2022-12-16T07:04:25;25.23;;;12.60;;
2972;SDS011;1496;51.404;7.232;2022-12-16T07:07:10;24.50;;;13.60;;
2972;SDS011;1496;51.404;7.232;2022-12-16T07:09:54;27.07;;;12.87;;
2972;SDS011;1496;51.404;7.232;2022-12-16T07:12:38;25.27;;;13.37;;
2972;SDS011;1496;51.404;7.232;2022-12-16T07:15:23;27.90;;;14.07;;
2972;SDS011;1496;51.404;7.232;2022-12-16T07:18:07;27.50;;;14.20;;
2972;SDS011;1496;51.404;7.232;2022-12-16T07:20:51;24.17;;;14.57;;
2972;SDS011;1496;51.404;7.232;2022-12-16T07:23:36;38.47;;;17.40;;
2972;SDS011;1496;51.404;7.232;2022-12-16T07:26:20;30.67;;;18.47;;
2972;SDS011;1496;51.404;7.232;2022-12-16T07:29:05;27.10;;;13.40;;
2972;SDS011;1496;51.404;7.232;2022-12-16T07:31:49;24.57;;;13.87;;
2972;SDS011;1496;51.404;7.232;2022-12-16T07:34:33;24.50;;;12.60;;
2972;SDS011;1496;51.404;7.232;2022-12-16T07:37:18;23.43;;;13.20;;
2972;SDS011;1496;51.404;7.232;2022-12-16T07:40:02;30.30;;;13.93;;
2972;SDS011;1496;51.404;7.232;2022-12-16T07:42:46;32.90;;;15.00;;
2972;SDS011;1496;51.404;7.232;2022-12-16T07:45:30;30.43;;;14.63;;
2972;SDS011;1496;51.404;7.232;2022-12-16T07:48:15;32.97;;;17.33;;
2972;SDS011;1496;51.404;7.232;2022-12-16T07:50:59;27.93;;;16.23;;
2972;SDS011;1496;51.404;7.232;2022-12-16T07:53:43;31.63;;;18.63;;
2972;SDS011;1496;51.404;7.232;2022-12-16T07:56:44;28.80;;;15.53;;
2972;SDS011;1496;51.404;7.232;2022-12-16T07:59:29;37.67;;;20.67;;
2972;SDS011;1496;51.404;7.232;2022-12-16T08:02:13;35.10;;;17.00;;
2972;SDS011;1496;51.404;7.232;2022-12-16T08:04:57;44.60;;;21.40;;
2972;SDS011;1496;51.404;7.232;2022-12-16T08:07:42;49.60;;;20.70;;
2972;SDS011;1496;51.404;7.232;2022-12-16T08:10:26;41.30;;;21.40;;
2972;SDS011;1496;51.404;7.232;2022-12-16T08:13:11;28.03;;;16.23;;
2972;SDS011;1496;51.404;7.232;2022-12-16T08:15:55;32.40;;;16.17;;
2972;SDS011;1496;51.404;7.232;2022-12-16T08:18:39;41.53;;;19.00;;
2972;SDS011;1496;51.404;7.232;2022-12-16T08:21:24;39.00;;;20.23;;
2972;SDS011;1496;51.404;7.232;2022-12-16T08:24:09;29.93;;;18.17;;
2972;SDS011;1496;51.404;7.232;2022-12-16T08:26:53;31.43;;;14.70;;
2972;SDS011;1496;51.404;7.232;2022-12-16T08:29:37;25.47;;;15.13;;
2972;SDS011;1496;51.404;7.232;2022-12-16T08:32:22;26.20;;;14.90;;
2972;SDS011;1496;51.404;7.232;2022-12-16T08:35:06;33.27;;;16.27;;
2972;SDS011;1496;51.404;7.232;2022-12-16T08:37:53;30.60;;;16.50;;
2972;SDS011;1496;51.404;7.232;2022-12-16T08:40:39;30.93;;;14.50;;
2972;SDS011;1496;51.404;7.232;2022-12-16T08:43:29;37.07;;;18.10;;
2972;SDS011;1496;51.404;7.232;2022-12-16T08:46:15;23.80;;;15.37;;
2972;SDS011;1496;51.404;7.232;2022-12-16T08:48:59;30.03;;;15.17;;
2972;SDS011;1496;51.404;7.232;2022-12-16T08:51:44;26.37;;;15.90;;
2972;SDS011;1496;51.404;7.232;2022-12-16T08:54:28;30.10;;;16.53;;
2972;SDS011;1496;51.404;7.232;2022-12-16T08:57:12;38.70;;;18.40;;
2972;SDS011;1496;51.404;7.232;2022-12-16T09:00:08;34.17;;;18.30;;
2972;SDS011;1496;51.404;7.232;2022-12-16T09:02:54;34.00;;;17.90;;
2972;SDS011;1496;51.404;7.232;2022-12-16T09:05:39;36.93;;;17.20;;
2972;SDS011;1496;51.404;7.232;2022-12-16T09:08:24;29.17;;;17.13;;
2972;SDS011;1496;51.404;7.232;2022-12-16T09:11:08;34.27;;;16.67;;
2972;SDS011;1496;51.404;7.232;2022-12-16T09:13:52;26.27;;;14.90;;
2972;SDS011;1496;51.404;7.232;2022-12-16T09:16:37;22.23;;;12.13;;
2972;SDS011;1496;51.404;7.232;2022-12-16T09:19:21;27.33;;;12.47;;
2972;SDS011;1496;51.404;7.232;2022-12-16T09:22:06;17.97;;;11.20;;
2972;SDS011;1496;51.404;7.232;2022-12-16T09:24:50;23.93;;;13.77;;
2972;SDS011;1496;51.404;7.232;2022-12-16T09:27:35;21.97;;;12.80;;
2972;SDS011;1496;51.404;7.232;2022-12-16T09:30:19;21.27;;;12.43;;
2972;SDS011;1496;51.404;7.232;2022-12-16T09:33:04;35.43;;;17.10;;
2972;SDS011;1496;51.404;7.232;2022-12-16T09:35:48;35.07;;;17.90;;
2972;SDS011;1496;51.404;7.232;2022-12-16T09:38:33;37.13;;;19.27;;
2972;SDS011;1496;51.404;7.232;2022-12-16T09:47:10;44.83;;;21.30;;
2972;SDS011;1496;51.404;7.232;2022-12-16T09:50:16;60.80;;;26.37;;
2972;SDS011;1496;51.404;7.232;2022-12-16T09:53:09;50.87;;;23.17;;
2972;SDS011;1496;51.404;7.232;2022-12-16T09:55:56;64.80;;;25.17;;
2972;SDS011;1496;51.404;7.232;2022-12-16T09:59:00;50.63;;;26.20;;
2972;SDS011;1496;51.404;7.232;2022-12-16T10:01:49;55.90;;;25.67;;
2972;SDS011;1496;51.404;7.232;2022-12-16T10:04:34;65.43;;;25.50;;
2972;SDS011;1496;51.404;7.232;2022-12-16T10:07:19;57.17;;;27.10;;
2972;SDS011;1496;51.404;7.232;2022-12-16T10:10:14;58.67;;;27.10;;
2972;SDS011;1496;51.404;7.232;2022-12-16T10:22:11;53.23;;;25.97;;
2972;SDS011;1496;51.404;7.232;2022-12-16T10:25:02;56.63;;;23.57;;
2972;SDS011;1496;51.404;7.232;2022-12-16T10:28:14;49.67;;;23.13;;
2972;SDS011;1496;51.404;7.232;2022-12-16T10:31:01;33.63;;;19.30;;
2972;SDS011;1496;51.404;7.232;2022-12-16T10:33:48;46.03;;;22.10;;
2972;SDS011;1496;51.404;7.232;2022-12-16T10:36:34;38.80;;;19.17;;
2972;SDS011;1496;51.404;7.232;2022-12-16T10:39:24;45.33;;;25.67;;
2972;SDS011;1496;51.404;7.232;2022-12-16T10:42:19;43.50;;;21.20;;
2972;SDS011;1496;51.404;7.232;2022-12-16T10:45:22;41.83;;;22.90;;
2972;SDS011;1496;51.404;7.232;2022-12-16T10:48:11;44.40;;;22.40;;
2972;SDS011;1496;51.404;7.232;2022-12-16T10:50:57;39.00;;;20.63;;
2972;SDS011;1496;51.404;7.232;2022-12-16T10:53:42;51.43;;;23.80;;
2972;SDS011;1496;51.404;7.232;2022-12-16T10:59:20;46.37;;;26.27;;
2972;SDS011;1496;51.404;7.232;2022-12-16T11:02:15;38.93;;;23.40;;
2972;SDS011;1496;51.404;7.232;2022-12-16T11:05:04;44.20;;;25.00;;
2972;SDS011;1496;51.404;7.232;2022-12-16T11:11:28;45.73;;;23.60;;
2972;SDS011;1496;51.404;7.232;2022-12-16T11:14:14;46.27;;;22.50;;
2972;SDS011;1496;51.404;7.232;2022-12-16T11:17:23;38.77;;;22.50;;
2972;SDS011;1496;51.404;7.232;2022-12-16T11:20:20;36.40;;;18.37;;
2972;SDS011;1496;51.404;7.232;2022-12-16T11:23:14;39.40;;;20.40;;
2972;SDS011;1496;51.404;7.232;2022-12-16T11:29:10;38.00;;;20.80;;
2972;SDS011;1496;51.404;7.232;2022-12-16T11:32:00;34.43;;;17.40;;
2972;SDS011;1496;51.404;7.232;2022-12-16T11:35:14;32.80;;;13.70;;
2972;SDS011;1496;51.404;7.232;2022-12-16T11:38:01;29.90;;;14.60;;
2972;SDS011;1496;51.404;7.232;2022-12-16T11:40:48;30.30;;;16.03;;
2972;SDS011;1496;51.404;7.232;2022-12-16T11:43:33;30.43;;;15.90;;
2972;SDS011;1496;51.404;7.232;2022-12-16T11:46:24;32.97;;;15.80;;
2972;SDS011;1496;51.404;7.232;2022-12-16T11:49:16;31.53;;;15.80;;
2972;SDS011;1496;51.404;7.232;2022-12-16T11:52:07;27.47;;;14.70;;
2972;SDS011;1496;51.404;7.232;2022-12-16T11:54:58;36.63;;;16.50;;
2972;SDS011;1496;51.404;7.232;2022-12-16T12:01:29;32.50;;;16.83;;
2972;SDS011;1496;51.404;7.232;2022-12-16T12:04:18;33.43;;;17.20;;
2972;SDS011;1496;51.404;7.232;2022-12-16T12:26:43;33.90;;;17.03;;
2972;SDS011;1496;51.404;7.232;2022-12-16T12:30:05;28.20;;;17.30;;
2972;SDS011;1496;51.404;7.232;2022-12-16T12:36:10;27.20;;;15.93;;
2972;SDS011;1496;51.404;7.232;2022-12-16T12:42:00;26.40;;;15.70;;
2972;SDS011;1496;51.404;7.232;2022-12-16T12:45:10;26.50;;;15.37;;
2972;SDS011;1496;51.404;7.232;2022-12-16T12:48:05;30.13;;;17.50;;
2972;SDS011;1496;51.404;7.232;2022-12-16T12:57:07;26.13;;;15.93;;
2972;SDS011;1496;51.404;7.232;2022-12-16T13:00:02;21.20;;;15.40;;
2972;SDS011;1496;51.404;7.232;2022-12-16T13:05:42;26.33;;;15.10;;
2972;SDS011;1496;51.404;7.232;2022-12-16T13:11:22;23.27;;;14.50;;
2972;SDS011;1496;51.404;7.232;2022-12-16T13:17:16;24.50;;;12.77;;
2972;SDS011;1496;51.404;7.232;2022-12-16T13:20:01;28.40;;;12.03;;
2972;SDS011;1496;51.404;7.232;2022-12-16T13:22:47;19.30;;;11.90;;
2972;SDS011;1496;51.404;7.232;2022-12-16T13:25:40;20.77;;;13.10;;
2972;SDS011;1496;51.404;7.232;2022-12-16T13:28:39;22.40;;;11.90;;
2972;SDS011;1496;51.404;7.232;2022-12-16T13:31:25;21.63;;;11.40;;
2972;SDS011;1496;51.404;7.232;2022-12-16T13:36:57;19.13;;;10.70;;
2972;SDS011;1496;51.404;7.232;2022-12-16T13:39:43;25.53;;;11.97;;
2972;SDS011;1496;51.404;7.232;2022-12-16T13:42:53;19.23;;;11.00;;
2972;SDS011;1496;51.404;7.232;2022-12-16T13:48:26;16.90;;;11.03;;
2972;SDS011;1496;51.404;7.232;2022-12-16T13:54:26;19.67;;;10.97;;
2972;SDS011;1496;51.404;7.232;2022-12-16T13:57:11;22.03;;;11.13;;
2972;SDS011;1496;51.404;7.232;2022-12-16T14:00:03;20.33;;;12.20;;
2972;SDS011;1496;51.404;7.232;2022-12-16T14:02:49;19.93;;;10.30;;
2972;SDS011;1496;51.404;7.232;2022-12-16T14:05:39;20.20;;;11.40;;
2972;SDS011;1496;51.404;7.232;2022-12-16T14:08:25;21.10;;;11.40;;
2972;SDS011;1496;51.404;7.232;2022-12-16T14:11:20;19.97;;;11.40;;
2972;SDS011;1496;51.404;7.232;2022-12-16T14:14:13;19.17;;;11.00;;
2972;SDS011;1496;51.404;7.232;2022-12-16T14:17:04;17.47;;;10.50;;
2972;SDS011;1496;51.404;7.232;2022-12-16T14:20:02;23.00;;;11.63;;
2972;SDS011;1496;51.404;7.232;2022-12-16T14:25:47;21.17;;;12.67;;
2972;SDS011;1496;51.404;7.232;2022-12-16T14:28:39;22.77;;;12.97;;
2972;SDS011;1496;51.404;7.232;2022-12-16T14:34:17;27.77;;;14.83;;
2972;SDS011;1496;51.404;7.232;2022-12-16T14:40:20;15.57;;;11.70;;
2972;SDS011;1496;51.404;7.232;2022-12-16T14:43:13;21.93;;;12.90;;
2972;SDS011;1496;51.404;7.232;2022-12-16T14:46:02;23.20;;;13.17;;
2972;SDS011;1496;51.404;7.232;2022-12-16T14:48:46;24.10;;;12.60;;
2972;SDS011;1496;51.404;7.232;2022-12-16T14:51:35;19.93;;;13.37;;
2972;SDS011;1496;51.404;7.232;2022-12-16T14:54:24;20.73;;;13.07;;
2972;SDS011;1496;51.404;7.232;2022-12-16T14:57:21;24.70;;;13.37;;
2972;SDS011;1496;51.404;7.232;2022-12-16T15:02:54;25.13;;;13.13;;
2972;SDS011;1496;51.404;7.232;2022-12-16T15:05:42;27.00;;;13.60;;
2972;SDS011;1496;51.404;7.232;2022-12-16T15:08:28;22.47;;;13.20;;
2972;SDS011;1496;51.404;7.232;2022-12-16T15:11:17;33.97;;;14.70;;
2972;SDS011;1496;51.404;7.232;2022-12-16T15:14:03;22.93;;;13.97;;
2972;SDS011;1496;51.404;7.232;2022-12-16T15:16:48;26.40;;;14.07;;
2972;SDS011;1496;51.404;7.232;2022-12-16T15:19:41;24.50;;;14.60;;
2972;SDS011;1496;51.404;7.232;2022-12-16T15:22:29;22.60;;;14.40;;
2972;SDS011;1496;51.404;7.232;2022-12-16T15:25:18;23.97;;;13.70;;
2972;SDS011;1496;51.404;7.232;2022-12-16T15:28:18;21.77;;;13.17;;
2972;SDS011;1496;51.404;7.232;2022-12-16T15:31:31;23.17;;;14.17;;
2972;SDS011;1496;51.404;7.232;2022-12-16T15:37:14;24.33;;;15.10;;
2972;SDS011;1496;51.404;7.232;2022-12-16T15:40:17;22.90;;;12.97;;
2972;SDS011;1496;51.404;7.232;2022-12-16T15:43:46;26.20;;;13.83;;
2972;SDS011;1496;51.404;7.232;2022-12-16T15:46:24;29.03;;;15.00;;
2972;SDS011;1496;51.404;7.232;2022-12-16T15:49:18;21.53;;;13.67;;
2972;SDS011;1496;51.404;7.232;2022-12-16T16:01:12;24.57;;;12.60;;
2972;SDS011;1496;51.404;7.232;2022-12-16T16:03:59;22.87;;;13.70;;
2972;SDS011;1496;51.404;7.232;2022-12-16T16:06:44;20.20;;;13.83;;
2972;SDS011;1496;51.404;7.232;2022-12-16T16:09:35;24.47;;;15.30;;
2972;SDS011;1496;51.404;7.232;2022-12-16T16:12:21;22.90;;;14.53;;
2972;SDS011;1496;51.404;7.232;2022-12-16T16:15:08;25.77;;;14.87;;
2972;SDS011;1496;51.404;7.232;2022-12-16T16:17:55;24.20;;;14.90;;
2972;SDS011;1496;51.404;7.232;2022-12-16T16:20:52;30.73;;;16.80;;
2972;SDS011;1496;51.404;7.232;2022-12-16T16:23:37;26.53;;;17.10;;
2972;SDS011;1496;51.404;7.232;2022-12-16T16:26:22;32.00;;;16.67;;
2972;SDS011;1496;51.404;7.232;2022-12-16T16:29:10;30.90;;;17.27;;
2972;SDS011;1496;51.404;7.232;2022-12-16T16:31:55;19.53;;;14.40;;
2972;SDS011;1496;51.404;7.232;2022-12-16T16:34:39;23.53;;;14.97;;
2972;SDS011;1496;51.404;7.232;2022-12-16T16:37:40;23.13;;;14.10;;
2972;SDS011;1496;51.404;7.232;2022-12-16T16:40:30;26.17;;;15.27;;
2972;SDS011;1496;51.404;7.232;2022-12-16T16:43:19;32.83;;;14.60;;
2972;SDS011;1496;51.404;7.232;2022-12-16T16:46:09;21.77;;;14.63;;
2972;SDS011;1496;51.404;7.232;2022-12-16T16:48:59;26.00;;;15.67;;
2972;SDS011;1496;51.404;7.232;2022-12-16T16:51:43;33.73;;;18.37;;
2972;SDS011;1496;51.404;7.232;2022-12-16T16:54:28;27.67;;;17.57;;
2972;SDS011;1496;51.404;7.232;2022-12-16T16:57:12;27.43;;;16.83;;
2972;SDS011;1496;51.404;7.232;2022-12-16T16:59:57;29.37;;;16.33;;
2972;SDS011;1496;51.404;7.232;2022-12-16T17:02:41;40.07;;;22.80;;
2972;SDS011;1496;51.404;7.232;2022-12-16T17:05:25;36.53;;;22.30;;
2972;SDS011;1496;51.404;7.232;2022-12-16T17:08:10;46.93;;;26.20;;
2972;SDS011;1496;51.404;7.232;2022-12-16T17:10:54;45.83;;;25.23;;
2972;SDS011;1496;51.404;7.232;2022-12-16T17:13:39;44.27;;;26.27;;
2972;SDS011;1496;51.404;7.232;2022-12-16T17:16:23;56.17;;;28.20;;
2972;SDS011;1496;51.404;7.232;2022-12-16T17:19:07;54.23;;;30.67;;
2972;SDS011;1496;51.404;7.232;2022-12-16T17:21:52;62.70;;;32.27;;
2972;SDS011;1496;51.404;7.232;2022-12-16T17:24:37;53.00;;;29.20;;
2972;SDS011;1496;51.404;7.232;2022-12-16T17:27:22;56.97;;;28.63;;
2972;SDS011;1496;51.404;7.232;2022-12-16T17:30:20;52.97;;;29.10;;
2972;SDS011;1496;51.404;7.232;2022-12-16T17:33:20;68.50;;;33.77;;
2972;SDS011;1496;51.404;7.232;2022-12-16T17:36:05;68.13;;;32.80;;
2972;SDS011;1496;51.404;7.232;2022-12-16T17:38:51;65.07;;;33.83;;
2972;SDS011;1496;51.404;7.232;2022-12-16T17:41:36;80.47;;;38.77;;
2972;SDS011;1496;51.404;7.232;2022-12-16T17:44:21;86.27;;;35.27;;
2972;SDS011;1496;51.404;7.232;2022-12-16T17:47:05;78.73;;;34.10;;
2972;SDS011;1496;51.404;7.232;2022-12-16T17:49:49;86.43;;;37.10;;
2972;SDS011;1496;51.404;7.232;2022-12-16T17:52:34;75.97;;;34.00;;
2972;SDS011;1496;51.404;7.232;2022-12-16T17:55:19;91.87;;;37.73;;
2972;SDS011;1496;51.404;7.232;2022-12-16T17:58:03;112.70;;;46.00;;
2972;SDS011;1496;51.404;7.232;2022-12-16T18:00:48;116.63;;;43.70;;
2972;SDS011;1496;51.404;7.232;2022-12-16T18:03:32;98.20;;;35.83;;
2972;SDS011;1496;51.404;7.232;2022-12-16T18:06:16;98.30;;;40.53;;
2972;SDS011;1496;51.404;7.232;2022-12-16T18:09:01;103.07;;;39.70;;
2972;SDS011;1496;51.404;7.232;2022-12-16T18:11:47;106.53;;;40.20;;
2972;SDS011;1496;51.404;7.232;2022-12-16T18:14:31;99.80;;;41.67;;
2972;SDS011;1496;51.404;7.232;2022-12-16T18:17:16;123.87;;;48.27;;
2972;SDS011;1496;51.404;7.232;2022-12-16T18:20:01;117.90;;;42.53;;
2972;SDS011;1496;51.404;7.232;2022-12-16T18:22:45;106.33;;;42.57;;
2972;SDS011;1496;51.404;7.232;2022-12-16T18:25:30;109.93;;;42.57;;
2972;SDS011;1496;51.404;7.232;2022-12-16T18:28:14;117.67;;;39.47;;
2972;SDS011;1496;51.404;7.232;2022-12-16T18:31:02;107.17;;;40.20;;